LTBHLGMT

Guest
Details From LTBH - CANAKKALE
To LGMT - Mitilini
Flight Number -
Tags generated
Created
Modified
Stats Distance 65 nm / 120 km
Max Altitude 0 ft / 0 m
Waypoints 3
Social Downloads 2
Likes 0
Share VATSIM

Download

Looking for another format? Having issues loading an existing format? Contact us
Advertisement - Login to hide

Notes

Basic altitude profile: - Ascent Rate: 700ft/min - Ascent Speed: 100kts - Cruise Altitude: 60ft - Cruise Speed: 140kts - Descent Rate: 700ft/min - Descent Speed: 100kts Options: - Use NATs: yes - Use PACOTS: yes - Use low airways: yes - Use high airways: yes

Route

LTBH CNK LGMT

ID Type Via Altitude Latitude Longitude Leg Dist Tot Dist Heading (true) Name
O LTBH APT - 0 ft / 0 m 40.13771˚ 26.42676˚ - 0 nm - CANAKKALE
CNK VOR - 0 ft / 0 m 40.13630˚ 26.42797˚ 0 nm 0 nm 147° / 147° CANAKKALE VOR-DME
O LGMT APT - 0 ft / 0 m 39.06583˚ 26.59194˚ 64 nm 64 nm 173° / 173° Mitilini

Altitude Profile

Advertisement - Login to hide

LTBH

Details ICAO LTBH (CKZ)
Name CANAKKALE
Region Turkey
Timezone Europe/Istanbul (UTC+3.0)
Stats Elevation 23 ft / 7 m (AMSL)
Location 40.137709° 26.426764°
Runways 1
Magnetic Variation 5.033° E

METAR

LTBH 180450Z 05011KT 9999 SCT035 BKN100 07/05 Q1016

Decode

TAF

Not found

Departure Runways

ID Width Length Bearing (true) Bearing (mag) Surface Threshold Offset Overrun Length
04 98 ft / 30 m 5,905 ft / 1,800 m 41.10° 36.07° Concrete 0 ft / 0 m 100 ft / 30 m
22 98 ft / 30 m 5,905 ft / 1,800 m 221.11° 216.08° Concrete 0 ft / 0 m 100 ft / 30 m

LGMT

Details ICAO LGMT (MJT)
Name Mitilini
Region Greece
Timezone Europe/Athens (UTC+2.0)
Stats Elevation 60 ft / 18 m (AMSL)
Location 39.065833° 26.591943°
Runways 1
Magnetic Variation 4.923° E

METAR

LGMT 180450Z 00000KT 9999 -RA FEW020 BKN025 10/08 Q1015

Decode

TAF

Not found

Destination Runways

ID Width Length Bearing (true) Bearing (mag) Surface Threshold Offset Overrun Length
14 148 ft / 45 m 7,899 ft / 2,408 m 147.79° 142.87° Asphalt 269 ft / 82 m 200 ft / 61 m
32 148 ft / 45 m 7,899 ft / 2,408 m 327.80° 322.88° Asphalt 1,755 ft / 535 m 165 ft / 50 m